sensor_id;sensor_type;location;lat;lon;timestamp;pressure;altitude;pressure_sealevel;temperature;humidity
3780;BME280;1905;52.482;9.802;2023-07-30T00:01:24;100300.78;;;18.71;80.48
3780;BME280;1905;52.482;9.802;2023-07-30T00:03:52;100293.72;;;18.70;81.10
3780;BME280;1905;52.482;9.802;2023-07-30T00:06:20;100297.38;;;18.69;80.86
3780;BME280;1905;52.482;9.802;2023-07-30T00:08:48;100303.59;;;18.69;81.28
3780;BME280;1905;52.482;9.802;2023-07-30T00:11:15;100301.88;;;18.68;81.43
3780;BME280;1905;52.482;9.802;2023-07-30T00:13:44;100299.34;;;18.67;81.30
3780;BME280;1905;52.482;9.802;2023-07-30T00:16:13;100296.94;;;18.64;81.77
3780;BME280;1905;52.482;9.802;2023-07-30T00:18:41;100298.59;;;18.65;81.54
3780;BME280;1905;52.482;9.802;2023-07-30T00:21:09;100307.88;;;18.61;81.13
3780;BME280;1905;52.482;9.802;2023-07-30T00:23:37;100298.16;;;18.60;81.64
3780;BME280;1905;52.482;9.802;2023-07-30T00:26:05;100297.28;;;18.59;81.08
3780;BME280;1905;52.482;9.802;2023-07-30T00:28:33;100303.75;;;18.57;81.18
3780;BME280;1905;52.482;9.802;2023-07-30T00:31:04;100300.09;;;18.58;81.47
3780;BME280;1905;52.482;9.802;2023-07-30T00:33:33;100300.09;;;18.58;81.26
3780;BME280;1905;52.482;9.802;2023-07-30T00:36:03;100288.69;;;18.56;81.26
3780;BME280;1905;52.482;9.802;2023-07-30T00:38:31;100287.94;;;18.54;81.19
3780;BME280;1905;52.482;9.802;2023-07-30T00:40:59;100288.22;;;18.51;81.33
3780;BME280;1905;52.482;9.802;2023-07-30T00:43:28;100288.22;;;18.51;81.73
3780;BME280;1905;52.482;9.802;2023-07-30T00:45:56;100283.94;;;18.48;81.31
3780;BME280;1905;52.482;9.802;2023-07-30T00:48:24;100291.00;;;18.49;81.58
3780;BME280;1905;52.482;9.802;2023-07-30T00:50:54;100293.84;;;18.48;81.48
3780;BME280;1905;52.482;9.802;2023-07-30T00:53:23;100295.72;;;18.45;81.54
3780;BME280;1905;52.482;9.802;2023-07-30T00:55:53;100299.41;;;18.44;82.02
3780;BME280;1905;52.482;9.802;2023-07-30T00:58:23;100303.03;;;18.43;81.55
3780;BME280;1905;52.482;9.802;2023-07-30T01:00:52;100299.66;;;18.41;81.83
3780;BME280;1905;52.482;9.802;2023-07-30T01:03:20;100307.78;;;18.40;81.48
3780;BME280;1905;52.482;9.802;2023-07-30T01:05:49;100308.78;;;18.39;81.62
3780;BME280;1905;52.482;9.802;2023-07-30T01:08:21;100308.78;;;18.39;81.46
3780;BME280;1905;52.482;9.802;2023-07-30T01:10:50;100315.22;;;18.36;81.25
3780;BME280;1905;52.482;9.802;2023-07-30T01:13:18;100320.81;;;18.33;81.58
3780;BME280;1905;52.482;9.802;2023-07-30T01:15:47;100318.13;;;18.33;82.48
3780;BME280;1905;52.482;9.802;2023-07-30T01:18:14;100318.53;;;18.29;82.79
3780;BME280;1905;52.482;9.802;2023-07-30T01:20:42;100320.34;;;18.28;81.65
3780;BME280;1905;52.482;9.802;2023-07-30T01:23:12;100322.28;;;18.26;82.55
3780;BME280;1905;52.482;9.802;2023-07-30T01:25:42;100325.94;;;18.25;82.50
3780;BME280;1905;52.482;9.802;2023-07-30T01:28:16;100332.25;;;18.24;82.48
3780;BME280;1905;52.482;9.802;2023-07-30T01:30:45;100338.59;;;18.23;82.10
3780;BME280;1905;52.482;9.802;2023-07-30T01:33:15;100345.84;;;18.21;82.94
3780;BME280;1905;52.482;9.802;2023-07-30T01:35:43;100339.06;;;18.17;83.10
3780;BME280;1905;52.482;9.802;2023-07-30T01:38:12;100348.78;;;18.18;83.04
3780;BME280;1905;52.482;9.802;2023-07-30T01:40:40;100340.75;;;18.18;82.49
3780;BME280;1905;52.482;9.802;2023-07-30T01:43:08;100339.31;;;18.14;83.09
3780;BME280;1905;52.482;9.802;2023-07-30T01:45:36;100340.03;;;18.16;82.61
3780;BME280;1905;52.482;9.802;2023-07-30T01:48:05;100340.03;;;18.16;81.73
3780;BME280;1905;52.482;9.802;2023-07-30T01:50:32;100334.81;;;18.15;82.73
3780;BME280;1905;52.482;9.802;2023-07-30T01:53:00;100341.28;;;18.12;82.47
3780;BME280;1905;52.482;9.802;2023-07-30T01:55:29;100344.91;;;18.11;83.20
3780;BME280;1905;52.482;9.802;2023-07-30T01:57:57;100351.97;;;18.12;82.73
3780;BME280;1905;52.482;9.802;2023-07-30T02:00:25;100350.25;;;18.11;83.15
3780;BME280;1905;52.482;9.802;2023-07-30T02:03:03;100348.81;;;18.07;83.80
3780;BME280;1905;52.482;9.802;2023-07-30T02:05:31;100348.06;;;18.05;83.06
3780;BME280;1905;52.482;9.802;2023-07-30T02:07:59;100348.81;;;18.07;83.54
3780;BME280;1905;52.482;9.802;2023-07-30T02:10:26;100347.81;;;18.08;83.03
3780;BME280;1905;52.482;9.802;2023-07-30T02:12:56;100357.56;;;18.09;82.67
3780;BME280;1905;52.482;9.802;2023-07-30T02:15:23;100354.97;;;18.08;82.93
3780;BME280;1905;52.482;9.802;2023-07-30T02:17:51;100353.31;;;18.07;82.59
3780;BME280;1905;52.482;9.802;2023-07-30T02:20:19;100361.66;;;18.02;82.91
3780;BME280;1905;52.482;9.802;2023-07-30T02:22:47;100354.41;;;18.04;83.23
3780;BME280;1905;52.482;9.802;2023-07-30T02:25:17;100358.03;;;18.03;83.42
3780;BME280;1905;52.482;9.802;2023-07-30T02:27:45;100353.78;;;18.01;83.48
3780;BME280;1905;52.482;9.802;2023-07-30T02:30:14;100354.88;;;17.98;85.62
3780;BME280;1905;52.482;9.802;2023-07-30T02:32:42;100357.66;;;17.97;83.91
3780;BME280;1905;52.482;9.802;2023-07-30T02:35:13;100359.38;;;17.98;83.65
3780;BME280;1905;52.482;9.802;2023-07-30T02:37:40;100356.69;;;17.98;83.44
3780;BME280;1905;52.482;9.802;2023-07-30T02:40:10;100353.16;;;17.97;83.70
3780;BME280;1905;52.482;9.802;2023-07-30T02:42:38;100358.50;;;17.97;83.42
3780;BME280;1905;52.482;9.802;2023-07-30T02:45:06;100360.22;;;17.98;83.85
3780;BME280;1905;52.482;9.802;2023-07-30T02:47:36;100361.31;;;17.96;83.36
3780;BME280;1905;52.482;9.802;2023-07-30T02:50:05;100355.97;;;17.96;83.66
3780;BME280;1905;52.482;9.802;2023-07-30T02:52:33;100359.50;;;17.96;83.76
3780;BME280;1905;52.482;9.802;2023-07-30T02:55:01;100362.66;;;17.90;85.45
3780;BME280;1905;52.482;9.802;2023-07-30T02:57:29;100357.19;;;17.92;83.82
3780;BME280;1905;52.482;9.802;2023-07-30T02:59:56;100362.75;;;17.89;85.27
3780;BME280;1905;52.482;9.802;2023-07-30T03:02:24;100362.66;;;17.90;84.15
3780;BME280;1905;52.482;9.802;2023-07-30T03:04:54;100364.22;;;17.93;83.50
3780;BME280;1905;52.482;9.802;2023-07-30T03:07:23;100364.34;;;17.91;83.51
3780;BME280;1905;52.482;9.802;2023-07-30T03:09:50;100364.72;;;17.87;84.05
3780;BME280;1905;52.482;9.802;2023-07-30T03:12:18;100373.59;;;17.87;83.25
3780;BME280;1905;52.482;9.802;2023-07-30T03:14:46;100370.78;;;17.89;83.72
3780;BME280;1905;52.482;9.802;2023-07-30T03:17:14;100370.19;;;17.85;83.32
3780;BME280;1905;52.482;9.802;2023-07-30T03:19:41;100368.47;;;17.84;82.65
3780;BME280;1905;52.482;9.802;2023-07-30T03:22:11;100383.88;;;17.80;83.69
3780;BME280;1905;52.482;9.802;2023-07-30T03:24:39;100379.41;;;17.81;83.15
3780;BME280;1905;52.482;9.802;2023-07-30T03:27:07;100386.06;;;17.75;83.78
3780;BME280;1905;52.482;9.802;2023-07-30T03:29:34;100375.16;;;17.78;83.04
3780;BME280;1905;52.482;9.802;2023-07-30T03:32:02;100380.50;;;17.78;83.73
3780;BME280;1905;52.482;9.802;2023-07-30T03:34:30;100376.09;;;17.77;84.01
3780;BME280;1905;52.482;9.802;2023-07-30T03:36:58;100377.97;;;17.77;82.76
3780;BME280;1905;52.482;9.802;2023-07-30T03:39:28;100376.38;;;17.74;83.00
3780;BME280;1905;52.482;9.802;2023-07-30T03:41:56;100383.78;;;17.71;82.65
3780;BME280;1905;52.482;9.802;2023-07-30T03:44:24;100375.75;;;17.71;82.98
3780;BME280;1905;52.482;9.802;2023-07-30T03:46:52;100379.38;;;17.70;83.51
3780;BME280;1905;52.482;9.802;2023-07-30T03:49:19;100376.13;;;17.66;82.97
3780;BME280;1905;52.482;9.802;2023-07-30T03:51:47;100382.53;;;17.64;82.64
3780;BME280;1905;52.482;9.802;2023-07-30T03:54:15;100386.81;;;17.66;83.13
3780;BME280;1905;52.482;9.802;2023-07-30T03:56:44;100394.91;;;17.65;82.69
3780;BME280;1905;52.482;9.802;2023-07-30T03:59:12;100395.16;;;17.62;83.03
3780;BME280;1905;52.482;9.802;2023-07-30T04:01:40;100399.78;;;17.60;82.78
3780;BME280;1905;52.482;9.802;2023-07-30T04:04:07;100403.41;;;17.59;82.73
3780;BME280;1905;52.482;9.802;2023-07-30T04:06:35;100401.81;;;17.56;82.96
3780;BME280;1905;52.482;9.802;2023-07-30T04:09:03;100400.97;;;17.56;83.27
3780;BME280;1905;52.482;9.802;2023-07-30T04:11:31;100400.44;;;17.51;83.55
3780;BME280;1905;52.482;9.802;2023-07-30T04:14:00;100406.53;;;17.53;83.36
3780;BME280;1905;52.482;9.802;2023-07-30T04:16:28;100404.81;;;17.52;82.70
3780;BME280;1905;52.482;9.802;2023-07-30T04:18:56;100410.41;;;17.49;83.16
3780;BME280;1905;52.482;9.802;2023-07-30T04:21:24;100401.44;;;17.50;83.35
3780;BME280;1905;52.482;9.802;2023-07-30T04:23:51;100410.41;;;17.49;83.06
3780;BME280;1905;52.482;9.802;2023-07-30T04:26:19;100403.34;;;17.48;82.91
3780;BME280;1905;52.482;9.802;2023-07-30T04:28:47;100410.41;;;17.49;82.72
3780;BME280;1905;52.482;9.802;2023-07-30T04:31:17;100401.66;;;17.47;82.91
3780;BME280;1905;52.482;9.802;2023-07-30T04:33:44;100408.69;;;17.48;82.67
3780;BME280;1905;52.482;9.802;2023-07-30T04:36:12;100406.28;;;17.45;82.30
3780;BME280;1905;52.482;9.802;2023-07-30T04:38:43;100409.91;;;17.44;82.52
3780;BME280;1905;52.482;9.802;2023-07-30T04:41:11;100408.94;;;17.45;82.56
3780;BME280;1905;52.482;9.802;2023-07-30T04:43:43;100408.09;;;17.44;82.88
3780;BME280;1905;52.482;9.802;2023-07-30T04:46:11;100414.28;;;17.45;82.13
3780;BME280;1905;52.482;9.802;2023-07-30T04:48:40;100414.28;;;17.45;82.16
3780;BME280;1905;52.482;9.802;2023-07-30T04:51:09;100412.56;;;17.44;82.18
3780;BME280;1905;52.482;9.802;2023-07-30T04:53:37;100414.50;;;17.42;82.34
3780;BME280;1905;52.482;9.802;2023-07-30T04:56:04;100406.38;;;17.43;82.69
3780;BME280;1905;52.482;9.802;2023-07-30T04:58:32;100405.50;;;17.43;82.22
3780;BME280;1905;52.482;9.802;2023-07-30T05:01:01;100415.25;;;17.44;82.18
3780;BME280;1905;52.482;9.802;2023-07-30T05:03:29;100410.84;;;17.43;82.86
3780;BME280;1905;52.482;9.802;2023-07-30T05:05:58;100407.22;;;17.44;82.66
3780;BME280;1905;52.482;9.802;2023-07-30T05:08:26;100405.03;;;17.38;84.60
3780;BME280;1905;52.482;9.802;2023-07-30T05:10:53;100408.53;;;17.38;83.17
3780;BME280;1905;52.482;9.802;2023-07-30T05:13:21;100407.47;;;17.41;83.17
3780;BME280;1905;52.482;9.802;2023-07-30T05:15:49;100403.94;;;17.40;83.20
3780;BME280;1905;52.482;9.802;2023-07-30T05:18:16;100401.88;;;17.44;82.74
3780;BME280;1905;52.482;9.802;2023-07-30T05:20:45;100414.28;;;17.45;83.17
3780;BME280;1905;52.482;9.802;2023-07-30T05:23:14;100409.16;;;17.42;84.49
3780;BME280;1905;52.482;9.802;2023-07-30T05:25:42;100412.56;;;17.44;83.71
3780;BME280;1905;52.482;9.802;2023-07-30T05:28:10;100415.97;;;17.46;83.81
3780;BME280;1905;52.482;9.802;2023-07-30T05:30:38;100413.44;;;17.44;83.83
3780;BME280;1905;52.482;9.802;2023-07-30T05:33:06;100408.94;;;17.45;84.17
3780;BME280;1905;52.482;9.802;2023-07-30T05:35:34;100421.31;;;17.46;84.13
3780;BME280;1905;52.482;9.802;2023-07-30T05:38:02;100422.78;;;17.50;84.08
3780;BME280;1905;52.482;9.802;2023-07-30T05:40:31;100422.78;;;17.50;83.76
3780;BME280;1905;52.482;9.802;2023-07-30T05:42:59;100420.84;;;17.52;83.42
3780;BME280;1905;52.482;9.802;2023-07-30T05:45:28;100415.50;;;17.52;84.80
3780;BME280;1905;52.482;9.802;2023-07-30T05:47:56;100412.84;;;17.52;83.65
3780;BME280;1905;52.482;9.802;2023-07-30T05:50:24;100413.59;;;17.54;84.32
3780;BME280;1905;52.482;9.802;2023-07-30T05:52:51;100408.88;;;17.57;83.86
3780;BME280;1905;52.482;9.802;2023-07-30T05:55:19;100414.09;;;17.59;82.94
3780;BME280;1905;52.482;9.802;2023-07-30T05:57:48;100407.78;;;17.60;83.97
3780;BME280;1905;52.482;9.802;2023-07-30T06:00:16;100408.63;;;17.60;84.36
3780;BME280;1905;52.482;9.802;2023-07-30T06:02:44;100414.56;;;17.64;84.10
3780;BME280;1905;52.482;9.802;2023-07-30T06:05:12;100410.84;;;17.66;83.62
3780;BME280;1905;52.482;9.802;2023-07-30T06:07:40;100416.06;;;17.68;84.78
3780;BME280;1905;52.482;9.802;2023-07-30T06:10:08;100410.47;;;17.71;84.39
3780;BME280;1905;52.482;9.802;2023-07-30T06:12:35;100412.16;;;17.72;83.46
3780;BME280;1905;52.482;9.802;2023-07-30T06:15:06;100407.56;;;17.74;83.42
3780;BME280;1905;52.482;9.802;2023-07-30T06:17:35;100409.78;;;17.80;84.18
3780;BME280;1905;52.482;9.802;2023-07-30T06:20:03;100418.50;;;17.82;82.95
3780;BME280;1905;52.482;9.802;2023-07-30T06:22:31;100417.53;;;17.83;83.00
3780;BME280;1905;52.482;9.802;2023-07-30T06:24:59;100411.84;;;17.88;83.71
3780;BME280;1905;52.482;9.802;2023-07-30T06:27:27;100411.00;;;17.87;83.48
3780;BME280;1905;52.482;9.802;2023-07-30T06:29:55;100421.44;;;17.90;83.31
3780;BME280;1905;52.482;9.802;2023-07-30T06:32:24;100413.06;;;17.95;83.16
3780;BME280;1905;52.482;9.802;2023-07-30T06:34:52;100407.47;;;17.98;82.77
3780;BME280;1905;52.482;9.802;2023-07-30T06:37:20;100416.22;;;18.00;82.45
3780;BME280;1905;52.482;9.802;2023-07-30T06:39:47;100419.63;;;18.02;82.61
3780;BME280;1905;52.482;9.802;2023-07-30T06:42:15;100418.53;;;18.04;82.00
3780;BME280;1905;52.482;9.802;2023-07-30T06:44:43;100422.91;;;18.05;82.23
3780;BME280;1905;52.482;9.802;2023-07-30T06:47:11;100423.66;;;18.07;81.92
3780;BME280;1905;52.482;9.802;2023-07-30T06:49:40;100427.03;;;18.09;81.33
3780;BME280;1905;52.482;9.802;2023-07-30T06:52:08;100424.84;;;18.14;81.43
3780;BME280;1905;52.482;9.802;2023-07-30T06:54:36;100435.16;;;18.19;81.06
3780;BME280;1905;52.482;9.802;2023-07-30T06:57:05;100427.78;;;18.22;80.53
3780;BME280;1905;52.482;9.802;2023-07-30T06:59:33;100435.56;;;18.25;80.64
3780;BME280;1905;52.482;9.802;2023-07-30T07:02:01;100443.09;;;18.31;80.57
3780;BME280;1905;52.482;9.802;2023-07-30T07:04:29;100437.47;;;18.34;79.66
3780;BME280;1905;52.482;9.802;2023-07-30T07:06:58;100437.22;;;18.37;79.53
3780;BME280;1905;52.482;9.802;2023-07-30T07:09:28;100448.94;;;18.48;78.95
3780;BME280;1905;52.482;9.802;2023-07-30T07:11:56;100432.66;;;18.51;78.69
3780;BME280;1905;52.482;9.802;2023-07-30T07:14:24;100439.69;;;18.52;78.33
3780;BME280;1905;52.482;9.802;2023-07-30T07:16:53;100439.22;;;18.58;78.42
3780;BME280;1905;52.482;9.802;2023-07-30T07:19:21;100442.34;;;18.63;77.90
3780;BME280;1905;52.482;9.802;2023-07-30T07:21:49;100442.72;;;18.69;76.51
3780;BME280;1905;52.482;9.802;2023-07-30T07:24:18;100457.44;;;18.75;77.03
3780;BME280;1905;52.482;9.802;2023-07-30T07:26:46;100454.00;;;18.73;76.76
3780;BME280;1905;52.482;9.802;2023-07-30T07:29:14;100442.81;;;18.79;76.45
3780;BME280;1905;52.482;9.802;2023-07-30T07:31:41;100452.16;;;18.84;76.75
3780;BME280;1905;52.482;9.802;2023-07-30T07:34:09;100456.16;;;18.90;76.26
3780;BME280;1905;52.482;9.802;2023-07-30T07:36:37;100458.75;;;18.91;76.53
3780;BME280;1905;52.482;9.802;2023-07-30T07:39:05;100466.25;;;18.97;76.40
3780;BME280;1905;52.482;9.802;2023-07-30T07:41:35;100458.81;;;19.01;77.19
3780;BME280;1905;52.482;9.802;2023-07-30T07:44:03;100456.38;;;19.09;75.54
3780;BME280;1905;52.482;9.802;2023-07-30T07:46:31;100453.91;;;19.17;74.90
3780;BME280;1905;52.482;9.802;2023-07-30T07:48:59;100463.41;;;19.21;76.35
3780;BME280;1905;52.482;9.802;2023-07-30T07:51:27;100468.84;;;19.20;74.00
3780;BME280;1905;52.482;9.802;2023-07-30T07:53:56;100444.97;;;19.28;75.97
3780;BME280;1905;52.482;9.802;2023-07-30T07:56:24;100451.53;;;19.35;74.93
3780;BME280;1905;52.482;9.802;2023-07-30T07:58:53;100453.84;;;19.39;75.60
3780;BME280;1905;52.482;9.802;2023-07-30T08:01:21;100447.97;;;19.45;74.84
3780;BME280;1905;52.482;9.802;2023-07-30T08:03:49;100447.19;;;19.54;74.55
3780;BME280;1905;52.482;9.802;2023-07-30T08:06:17;100455.41;;;19.63;75.36
3780;BME280;1905;52.482;9.802;2023-07-30T08:08:45;100454.78;;;19.70;73.99
3780;BME280;1905;52.482;9.802;2023-07-30T08:11:13;100452.44;;;19.77;73.54
3780;BME280;1905;52.482;9.802;2023-07-30T08:13:41;100462.63;;;19.83;72.59
3780;BME280;1905;52.482;9.802;2023-07-30T08:16:10;100456.19;;;19.95;73.09
3780;BME280;1905;52.482;9.802;2023-07-30T08:18:38;100450.75;;;20.06;73.25
3780;BME280;1905;52.482;9.802;2023-07-30T08:21:05;100452.66;;;20.15;72.52
3780;BME280;1905;52.482;9.802;2023-07-30T08:23:33;100458.94;;;20.25;72.89
3780;BME280;1905;52.482;9.802;2023-07-30T08:26:02;100457.88;;;20.37;72.33
3780;BME280;1905;52.482;9.802;2023-07-30T08:28:29;100455.09;;;20.48;72.71
3780;BME280;1905;52.482;9.802;2023-07-30T08:30:59;100456.28;;;20.65;72.60
3780;BME280;1905;52.482;9.802;2023-07-30T08:33:29;100451.63;;;20.76;70.80
3780;BME280;1905;52.482;9.802;2023-07-30T08:35:58;100436.81;;;20.82;69.81
3780;BME280;1905;52.482;9.802;2023-07-30T08:38:28;100437.56;;;20.94;72.11
3780;BME280;1905;52.482;9.802;2023-07-30T08:40:56;100433.78;;;21.15;72.82
3780;BME280;1905;52.482;9.802;2023-07-30T08:43:24;100437.75;;;21.21;70.30
3780;BME280;1905;52.482;9.802;2023-07-30T08:45:52;100420.94;;;21.38;72.29
3780;BME280;1905;52.482;9.802;2023-07-30T08:48:20;100426.84;;;21.42;70.16
3780;BME280;1905;52.482;9.802;2023-07-30T08:50:50;100423.19;;;21.52;69.10
3780;BME280;1905;52.482;9.802;2023-07-30T08:53:18;100414.38;;;21.69;71.03
3780;BME280;1905;52.482;9.802;2023-07-30T08:55:46;100415.94;;;21.72;69.90
3780;BME280;1905;52.482;9.802;2023-07-30T08:58:14;100426.69;;;21.81;68.78
3780;BME280;1905;52.482;9.802;2023-07-30T09:00:43;100422.44;;;21.88;68.84
3780;BME280;1905;52.482;9.802;2023-07-30T09:03:15;100427.19;;;22.04;69.37
3780;BME280;1905;52.482;9.802;2023-07-30T09:05:44;100425.53;;;22.03;69.43
3780;BME280;1905;52.482;9.802;2023-07-30T09:08:14;100431.44;;;22.16;69.76
3780;BME280;1905;52.482;9.802;2023-07-30T09:10:42;100432.50;;;22.33;71.14
3780;BME280;1905;52.482;9.802;2023-07-30T09:13:10;100436.34;;;22.30;66.77
3780;BME280;1905;52.482;9.802;2023-07-30T09:15:38;100442.97;;;22.36;68.67
3780;BME280;1905;52.482;9.802;2023-07-30T09:18:06;100447.94;;;22.31;66.08
3780;BME280;1905;52.482;9.802;2023-07-30T09:20:44;100442.91;;;22.45;66.04
3780;BME280;1905;52.482;9.802;2023-07-30T09:23:18;100444.84;;;22.53;67.89
3780;BME280;1905;52.482;9.802;2023-07-30T09:25:48;100448.19;;;22.74;70.06
3780;BME280;1905;52.482;9.802;2023-07-30T09:28:20;100451.88;;;22.73;66.08
3780;BME280;1905;52.482;9.802;2023-07-30T09:30:49;100449.28;;;22.81;68.26
3780;BME280;1905;52.482;9.802;2023-07-30T09:33:18;100451.22;;;22.89;67.35
3780;BME280;1905;52.482;9.802;2023-07-30T09:35:46;100461.66;;;23.01;67.18
3780;BME280;1905;52.482;9.802;2023-07-30T09:38:15;100461.44;;;23.13;67.64
3780;BME280;1905;52.482;9.802;2023-07-30T09:40:45;100455.88;;;23.14;68.09
3780;BME280;1905;52.482;9.802;2023-07-30T09:43:16;100463.19;;;23.22;67.92
3780;BME280;1905;52.482;9.802;2023-07-30T09:45:45;100466.41;;;23.07;64.01
3780;BME280;1905;52.482;9.802;2023-07-30T09:48:14;100473.38;;;23.28;66.99
3780;BME280;1905;52.482;9.802;2023-07-30T09:50:43;100473.59;;;23.34;66.66
3780;BME280;1905;52.482;9.802;2023-07-30T09:53:13;100489.53;;;23.28;66.40
3780;BME280;1905;52.482;9.802;2023-07-30T09:55:42;100486.84;;;23.28;66.91
3780;BME280;1905;52.482;9.802;2023-07-30T09:58:11;100486.38;;;23.32;65.95
3780;BME280;1905;52.482;9.802;2023-07-30T10:00:40;100489.03;;;23.42;66.20
3780;BME280;1905;52.482;9.802;2023-07-30T10:03:10;100484.56;;;23.50;66.99
3780;BME280;1905;52.482;9.802;2023-07-30T10:05:39;100491.94;;;23.48;66.54
3780;BME280;1905;52.482;9.802;2023-07-30T10:08:11;100486.56;;;23.48;65.18
3780;BME280;1905;52.482;9.802;2023-07-30T10:10:41;100483.63;;;23.59;67.14
3780;BME280;1905;52.482;9.802;2023-07-30T10:13:11;100483.88;;;23.66;67.22
3780;BME280;1905;52.482;9.802;2023-07-30T10:15:40;100489.56;;;23.63;66.31
3780;BME280;1905;52.482;9.802;2023-07-30T10:18:08;100490.97;;;23.67;66.98
3780;BME280;1905;52.482;9.802;2023-07-30T10:20:36;100494.66;;;23.66;65.51
3780;BME280;1905;52.482;9.802;2023-07-30T10:23:05;100505.44;;;23.66;65.68
3780;BME280;1905;52.482;9.802;2023-07-30T10:25:43;100513.16;;;23.61;63.83
3780;BME280;1905;52.482;9.802;2023-07-30T10:31:06;100521.16;;;23.53;65.69
3780;BME280;1905;52.482;9.802;2023-07-30T10:33:47;100522.19;;;23.69;66.29
3780;BME280;1905;52.482;9.802;2023-07-30T10:36:17;100533.47;;;23.73;65.56
3780;BME280;1905;52.482;9.802;2023-07-30T10:38:46;100527.94;;;23.57;62.95
3780;BME280;1905;52.482;9.802;2023-07-30T10:41:15;100534.56;;;23.62;65.25
3780;BME280;1905;52.482;9.802;2023-07-30T10:43:47;100533.72;;;23.35;62.50
3780;BME280;1905;52.482;9.802;2023-07-30T10:46:18;100546.22;;;23.36;62.36
3780;BME280;1905;52.482;9.802;2023-07-30T10:48:50;100536.03;;;23.30;62.34
3780;BME280;1905;52.482;9.802;2023-07-30T10:51:19;100532.31;;;23.40;62.93
3780;BME280;1905;52.482;9.802;2023-07-30T10:53:48;100530.91;;;23.36;63.04
3780;BME280;1905;52.482;9.802;2023-07-30T10:56:18;100520.91;;;23.46;64.75
3780;BME280;1905;52.482;9.802;2023-07-30T10:58:49;100521.16;;;23.53;64.50
3780;BME280;1905;52.482;9.802;2023-07-30T11:01:19;100521.94;;;23.63;64.70
3780;BME280;1905;52.482;9.802;2023-07-30T11:03:50;100531.44;;;23.67;65.07
3780;BME280;1905;52.482;9.802;2023-07-30T11:06:21;100528.06;;;23.38;61.32
3780;BME280;1905;52.482;9.802;2023-07-30T11:08:49;100528.88;;;23.48;64.86
3780;BME280;1905;52.482;9.802;2023-07-30T11:11:18;100531.34;;;23.59;64.55
3780;BME280;1905;52.482;9.802;2023-07-30T11:13:47;100533.13;;;23.50;63.46
3780;BME280;1905;52.482;9.802;2023-07-30T11:16:15;100524.84;;;23.52;63.81
3780;BME280;1905;52.482;9.802;2023-07-30T11:18:45;100521.25;;;23.61;64.39
3780;BME280;1905;52.482;9.802;2023-07-30T11:21:15;100512.44;;;23.77;64.89
3780;BME280;1905;52.482;9.802;2023-07-30T11:23:44;100519.44;;;23.87;64.02
3780;BME280;1905;52.482;9.802;2023-07-30T11:26:17;100521.66;;;23.92;64.95
3780;BME280;1905;52.482;9.802;2023-07-30T11:28:45;100518.66;;;23.95;64.25
3780;BME280;1905;52.482;9.802;2023-07-30T11:31:15;100512.34;;;23.86;64.22
3780;BME280;1905;52.482;9.802;2023-07-30T11:33:48;100509.19;;;23.91;63.56
3780;BME280;1905;52.482;9.802;2023-07-30T11:36:19;100514.06;;;23.87;63.05
3780;BME280;1905;52.482;9.802;2023-07-30T11:38:48;100509.81;;;24.02;64.45
3780;BME280;1905;52.482;9.802;2023-07-30T11:41:16;100515.56;;;24.07;64.27
3780;BME280;1905;52.482;9.802;2023-07-30T11:43:45;100514.72;;;23.89;61.87
3780;BME280;1905;52.482;9.802;2023-07-30T11:46:15;100521.97;;;24.06;64.28
3780;BME280;1905;52.482;9.802;2023-07-30T11:48:45;100515.56;;;24.07;63.70
3780;BME280;1905;52.482;9.802;2023-07-30T11:51:22;100516.97;;;24.11;63.00
3780;BME280;1905;52.482;9.802;2023-07-30T11:53:51;100511.25;;;24.14;63.84
3780;BME280;1905;52.482;9.802;2023-07-30T11:56:22;100504.50;;;24.10;62.46
3780;BME280;1905;52.482;9.802;2023-07-30T11:58:54;100502.63;;;24.11;62.61
3780;BME280;1905;52.482;9.802;2023-07-30T12:01:25;100513.97;;;24.14;62.64
3780;BME280;1905;52.482;9.802;2023-07-30T12:03:57;100506.94;;;24.21;62.82
3780;BME280;1905;52.482;9.802;2023-07-30T12:06:38;100496.81;;;24.06;61.87
3780;BME280;1905;52.482;9.802;2023-07-30T12:09:13;100496.22;;;24.12;62.64
3780;BME280;1905;52.482;9.802;2023-07-30T12:11:50;100504.50;;;24.10;61.66
3780;BME280;1905;52.482;9.802;2023-07-30T12:14:21;100502.78;;;23.92;60.38
3780;BME280;1905;52.482;9.802;2023-07-30T12:16:52;100515.66;;;23.98;61.45
3780;BME280;1905;52.482;9.802;2023-07-30T12:19:20;100502.31;;;23.96;60.92
3780;BME280;1905;52.482;9.802;2023-07-30T12:21:49;100513.97;;;24.14;61.69
3780;BME280;1905;52.482;9.802;2023-07-30T12:24:18;100513.59;;;24.09;61.36
3780;BME280;1905;52.482;9.802;2023-07-30T12:26:47;100497.81;;;24.22;62.11
3780;BME280;1905;52.482;9.802;2023-07-30T12:29:15;100503.94;;;24.33;62.13
3780;BME280;1905;52.482;9.802;2023-07-30T12:31:44;100497.59;;;24.42;61.79
3780;BME280;1905;52.482;9.802;2023-07-30T12:34:13;100502.69;;;24.45;61.79
3780;BME280;1905;52.482;9.802;2023-07-30T12:36:41;100498.31;;;24.52;62.21
3780;BME280;1905;52.482;9.802;2023-07-30T12:39:11;100495.22;;;24.39;59.42
3780;BME280;1905;52.482;9.802;2023-07-30T12:41:38;100481.28;;;24.51;61.55
3780;BME280;1905;52.482;9.802;2023-07-30T12:44:06;100485.09;;;24.41;61.14
3780;BME280;1905;52.482;9.802;2023-07-30T12:46:36;100479.91;;;24.47;59.37
3780;BME280;1905;52.482;9.802;2023-07-30T12:49:05;100481.78;;;24.55;58.65
3780;BME280;1905;52.482;9.802;2023-07-30T12:51:33;100471.97;;;24.46;58.97
3780;BME280;1905;52.482;9.802;2023-07-30T12:54:01;100468.47;;;24.53;59.13
3780;BME280;1905;52.482;9.802;2023-07-30T12:56:30;100469.63;;;24.51;59.89
3780;BME280;1905;52.482;9.802;2023-07-30T12:59:02;100474.72;;;24.54;59.32
3780;BME280;1905;52.482;9.802;2023-07-30T13:01:30;100478.28;;;24.62;59.87
3780;BME280;1905;52.482;9.802;2023-07-30T13:03:58;100469.03;;;24.65;58.38
3780;BME280;1905;52.482;9.802;2023-07-30T13:06:27;100470.13;;;24.54;57.50
3780;BME280;1905;52.482;9.802;2023-07-30T13:08:56;100470.81;;;24.48;58.39
3780;BME280;1905;52.482;9.802;2023-07-30T13:11:24;100471.97;;;24.46;59.20
3780;BME280;1905;52.482;9.802;2023-07-30T13:13:53;100463.06;;;24.53;59.29
3780;BME280;1905;52.482;9.802;2023-07-30T13:16:21;100468.66;;;24.60;57.15
3780;BME280;1905;52.482;9.802;2023-07-30T13:18:49;100476.16;;;24.74;58.85
3780;BME280;1905;52.482;9.802;2023-07-30T13:21:19;100460.66;;;24.84;58.86